Nausori International Airport
NFNA : now visible

Airfield :











YOU CAN JOIN US ON...

 
LOGIN :

Register | Disclaimer

   EN    FR    IT 

 









Legend :    VFR   Marginal VFR   IFR   Intensive IFR   Very Intensive IFR
Visi :
Ceiling :
>= 8 km
>= 3000ft
5 to 8 km
1000 to 3000 ft
1500m to 5 km
500 to 1000 ft
800 to 1500m
200 to 500 ft
< 800m
< 200 ft
Symbols :   Thunderstorms  Fog  Heavy snow  Heavy precipitations  Wind > 20 kt






- Airport Elevation : 17 ft
- IATA code : SUV


NFNA - Nausori International

CURRENT METAR :
  • 032000Z 13006KT 9999 SCT020 25/21 Q1015

EXPIRED METARs :
  • 031900Z 13007KT 9999 BKN020 24/20 Q1015
  • 030500Z 13006KT 100V160 9999 SCT020 26/22 Q1014
  • 031800Z 13006KT 9999 SCT020 SCT045 24/23 Q1015

TAF TAF NFNA
Valid from the 03 at 18:00 until the 04 at 18:00 UTC


031705Z 0318/0418 13005KT 9999 BKN020 SCT045
PROB30
TEMPO 0402/0406 5000 SHRA BKN015
NFFF FIR / Oceania



MET'MAP, your aeronautical weather chart ! - Copyright ORBIFLY December 2007 - Disclaimer

ORBIFLY MET'MAP TEAM :

Programming & Development : Alexandra Zaïnal
Original concept : Baudouin d'Aumeries
Technical & hardware support : Manuel Goepfert
Assistance : Marc-Olivier Méhu




SOURCES & CREDITS :

   NOAA       Earth
Advisory